createdAt,value
2016-12-18T00:00:07.705Z,931.24
2016-12-18T00:00:22.116Z,931.22
2016-12-18T00:00:36.540Z,931.23
2016-12-18T00:00:50.998Z,931.25
2016-12-18T00:01:05.357Z,931.23
2016-12-18T00:01:19.777Z,931.23
2016-12-18T00:01:34.219Z,931.27
2016-12-18T00:01:48.930Z,931.24
2016-12-18T00:02:03.302Z,931.19
2016-12-18T00:02:17.734Z,931.21
2016-12-18T00:02:32.023Z,931.31
2016-12-18T00:02:46.442Z,931.31
2016-12-18T00:03:00.910Z,931.22
2016-12-18T00:03:15.328Z,931.21
2016-12-18T00:03:29.714Z,931.3
2016-12-18T00:03:44.149Z,931.25
2016-12-18T00:03:58.512Z,931.21
2016-12-18T00:04:12.847Z,931.3
2016-12-18T00:04:27.226Z,931.29
2016-12-18T00:04:41.662Z,931.35
2016-12-18T00:04:56.018Z,931.35
2016-12-18T00:05:10.372Z,931.3
2016-12-18T00:05:24.797Z,931.33
2016-12-18T00:05:39.206Z,931.3
2016-12-18T00:05:53.571Z,931.35
2016-12-18T00:06:07.976Z,931.31
2016-12-18T00:06:22.346Z,931.34
2016-12-18T00:06:36.738Z,931.35
2016-12-18T00:06:51.174Z,931.33
2016-12-18T00:07:05.580Z,931.33
2016-12-18T00:07:20.004Z,931.38
2016-12-18T00:07:34.383Z,931.37
2016-12-18T00:07:48.805Z,931.34
2016-12-18T00:08:03.247Z,931.34
2016-12-18T00:08:17.606Z,931.33
2016-12-18T00:08:32.059Z,931.34
2016-12-18T00:08:46.433Z,931.36
2016-12-18T00:09:00.828Z,931.35
2016-12-18T00:09:15.232Z,931.34
2016-12-18T00:09:29.633Z,931.34
2016-12-18T00:09:44.041Z,931.36
2016-12-18T00:09:58.431Z,931.37
2016-12-18T00:10:12.846Z,931.28
2016-12-18T00:10:27.242Z,931.35
2016-12-18T00:10:41.707Z,931.36
2016-12-18T00:10:56.148Z,931.37
2016-12-18T00:11:10.577Z,931.33
2016-12-18T00:11:24.917Z,931.35
2016-12-18T00:11:39.200Z,931.33
2016-12-18T00:11:53.601Z,931.37
2016-12-18T00:12:07.944Z,931.4
2016-12-18T00:12:22.400Z,931.3
2016-12-18T00:12:36.802Z,931.36
2016-12-18T00:12:51.170Z,931.34
2016-12-18T00:13:05.559Z,931.31
2016-12-18T00:13:19.945Z,931.31
2016-12-18T00:13:34.344Z,931.32
2016-12-18T00:13:48.677Z,931.29
2016-12-18T00:14:03.045Z,931.31
2016-12-18T00:14:17.486Z,931.33
2016-12-18T00:14:31.882Z,931.33
2016-12-18T00:14:46.238Z,931.3
2016-12-18T00:15:00.614Z,931.26
2016-12-18T00:15:15.030Z,931.27
2016-12-18T00:15:29.463Z,931.3
2016-12-18T00:15:43.936Z,931.25
2016-12-18T00:15:58.403Z,931.3
2016-12-18T00:16:12.832Z,931.29
2016-12-18T00:16:27.264Z,931.28
2016-12-18T00:16:41.607Z,931.28
2016-12-18T00:16:56.225Z,931.3
2016-12-18T00:17:10.659Z,931.31
2016-12-18T00:17:25.107Z,931.29
2016-12-18T00:17:39.515Z,931.34
2016-12-18T00:17:53.955Z,931.34
2016-12-18T00:18:08.325Z,931.34
2016-12-18T00:18:22.659Z,931.36
2016-12-18T00:18:37.025Z,931.33
2016-12-18T00:18:51.428Z,931.32
2016-12-18T00:19:05.889Z,931.28
2016-12-18T00:19:20.333Z,931.33
2016-12-18T00:19:34.717Z,931.36
2016-12-18T00:19:49.152Z,931.33
2016-12-18T00:20:03.587Z,931.28
2016-12-18T00:20:18.004Z,931.31
2016-12-18T00:20:32.367Z,931.28
2016-12-18T00:20:46.773Z,931.27
2016-12-18T00:21:01.170Z,931.27
2016-12-18T00:21:15.515Z,931.3
2016-12-18T00:21:29.911Z,931.32
2016-12-18T00:21:44.322Z,931.31
2016-12-18T00:21:58.670Z,931.31
2016-12-18T00:22:13.038Z,931.33
2016-12-18T00:22:27.348Z,931.29
2016-12-18T00:22:41.727Z,931.28
2016-12-18T00:22:56.135Z,931.3
2016-12-18T00:23:10.495Z,931.31
2016-12-18T00:23:24.884Z,931.32
2016-12-18T00:23:39.291Z,931.31
2016-12-18T00:23:53.730Z,931.31
2016-12-18T00:24:08.116Z,931.35
2016-12-18T00:24:22.461Z,931.36
2016-12-18T00:24:36.879Z,931.3
2016-12-18T00:24:51.271Z,931.33
2016-12-18T00:25:05.708Z,931.33
2016-12-18T00:25:20.129Z,931.31
2016-12-18T00:25:34.532Z,931.38
2016-12-18T00:25:48.884Z,931.34
2016-12-18T00:26:03.284Z,931.32
2016-12-18T00:26:17.704Z,931.38
2016-12-18T00:26:32.130Z,931.35
2016-12-18T00:26:46.522Z,931.37
2016-12-18T00:27:00.942Z,931.38
2016-12-18T00:27:15.344Z,931.37
2016-12-18T00:27:29.728Z,931.4
2016-12-18T00:27:44.151Z,931.38
2016-12-18T00:27:58.550Z,931.37
2016-12-18T00:28:12.919Z,931.42
2016-12-18T00:28:27.326Z,931.37
2016-12-18T00:28:41.733Z,931.39
2016-12-18T00:28:56.132Z,931.41
2016-12-18T00:29:10.523Z,931.38
2016-12-18T00:29:24.868Z,931.37
2016-12-18T00:29:39.271Z,931.4
2016-12-18T00:29:53.674Z,931.38
2016-12-18T00:30:08.100Z,931.44
2016-12-18T00:30:22.549Z,931.42
2016-12-18T00:30:36.966Z,931.34
2016-12-18T00:30:51.344Z,931.38
2016-12-18T00:31:05.727Z,931.41
2016-12-18T00:31:20.119Z,931.43
2016-12-18T00:31:34.520Z,931.4
2016-12-18T00:31:48.901Z,931.4
2016-12-18T00:32:03.594Z,931.42
2016-12-18T00:32:17.948Z,931.39
2016-12-18T00:32:32.372Z,931.4
2016-12-18T00:32:46.773Z,931.37
2016-12-18T00:33:01.173Z,931.39
2016-12-18T00:33:15.603Z,931.4
2016-12-18T00:33:29.997Z,931.36
2016-12-18T00:33:44.399Z,931.41
2016-12-18T00:33:58.798Z,931.37
2016-12-18T00:34:13.215Z,931.4
2016-12-18T00:34:27.640Z,931.37
2016-12-18T00:34:42.024Z,931.4
2016-12-18T00:34:56.394Z,931.4
2016-12-18T00:35:10.774Z,931.41
2016-12-18T00:35:25.202Z,931.42
2016-12-18T00:35:39.601Z,931.41
2016-12-18T00:35:54.029Z,931.4
2016-12-18T00:36:08.470Z,931.42
2016-12-18T00:36:22.793Z,931.36
2016-12-18T00:36:37.124Z,931.38
2016-12-18T00:36:51.626Z,931.38
2016-12-18T00:37:06.066Z,931.39
2016-12-18T00:37:20.434Z,931.41
2016-12-18T00:37:34.822Z,931.41
2016-12-18T00:37:49.210Z,931.37
2016-12-18T00:38:03.653Z,931.41
2016-12-18T00:38:18.042Z,931.39
2016-12-18T00:38:32.487Z,931.43
2016-12-18T00:38:46.881Z,931.45
2016-12-18T00:39:01.307Z,931.43
2016-12-18T00:39:15.775Z,931.46
2016-12-18T00:39:30.108Z,931.42
2016-12-18T00:39:44.573Z,931.4
2016-12-18T00:39:59.052Z,931.43
2016-12-18T00:40:13.418Z,931.42
2016-12-18T00:40:27.846Z,931.45
2016-12-18T00:40:42.341Z,931.43
2016-12-18T00:40:56.713Z,931.44
2016-12-18T00:41:11.203Z,931.43
2016-12-18T00:41:25.713Z,931.43
2016-12-18T00:41:40.120Z,931.47
2016-12-18T00:41:54.546Z,931.42
2016-12-18T00:42:08.946Z,931.45
2016-12-18T00:42:23.361Z,931.43
2016-12-18T00:42:37.729Z,931.48
2016-12-18T00:42:52.190Z,931.44
2016-12-18T00:43:06.545Z,931.45
2016-12-18T00:43:20.955Z,931.49
2016-12-18T00:43:35.310Z,931.47
2016-12-18T00:43:49.671Z,931.56
2016-12-18T00:44:04.037Z,931.51
2016-12-18T00:44:18.378Z,931.46
2016-12-18T00:44:32.766Z,931.51
2016-12-18T00:44:47.211Z,931.52
2016-12-18T00:45:01.536Z,931.53
2016-12-18T00:45:15.890Z,931.5
2016-12-18T00:45:30.366Z,931.51
2016-12-18T00:45:44.801Z,931.54
2016-12-18T00:45:59.207Z,931.52
2016-12-18T00:46:13.590Z,931.54
2016-12-18T00:46:27.967Z,931.55
2016-12-18T00:46:42.356Z,931.55
2016-12-18T00:46:56.772Z,931.54
2016-12-18T00:47:11.458Z,931.51
2016-12-18T00:47:25.829Z,931.55
2016-12-18T00:47:40.217Z,931.56
2016-12-18T00:47:54.596Z,931.55
2016-12-18T00:48:08.951Z,931.52
2016-12-18T00:48:23.324Z,931.51
2016-12-18T00:48:37.712Z,931.5
2016-12-18T00:48:52.125Z,931.46
2016-12-18T00:49:06.549Z,931.52
2016-12-18T00:49:20.964Z,931.47
2016-12-18T00:49:35.359Z,931.53
2016-12-18T00:49:49.725Z,931.46
2016-12-18T00:50:04.029Z,931.45
2016-12-18T00:50:18.367Z,931.53
2016-12-18T00:50:32.722Z,931.43
2016-12-18T00:50:47.203Z,931.45
2016-12-18T00:51:01.661Z,931.45
2016-12-18T00:51:16.033Z,931.44
2016-12-18T00:51:30.458Z,931.44
2016-12-18T00:51:44.778Z,931.43
2016-12-18T00:51:59.132Z,931.45
2016-12-18T00:52:13.521Z,931.5
2016-12-18T00:52:27.980Z,931.45
2016-12-18T00:52:42.372Z,931.47
2016-12-18T00:52:56.824Z,931.46
2016-12-18T00:53:11.257Z,931.46
2016-12-18T00:53:25.654Z,931.44
2016-12-18T00:53:40.069Z,931.42
2016-12-18T00:53:54.475Z,931.46
2016-12-18T00:54:08.871Z,931.48
2016-12-18T00:54:23.231Z,931.49
2016-12-18T00:54:37.666Z,931.48
2016-12-18T00:54:52.069Z,931.47
2016-12-18T00:55:06.512Z,931.46
2016-12-18T00:55:20.946Z,931.48
2016-12-18T00:55:35.422Z,931.45
2016-12-18T00:55:49.797Z,931.45
2016-12-18T00:56:04.154Z,931.48
2016-12-18T00:56:18.631Z,931.51
2016-12-18T00:56:33.030Z,931.5
2016-12-18T00:56:47.385Z,931.45
2016-12-18T00:57:01.746Z,931.46
2016-12-18T00:57:16.203Z,931.47
2016-12-18T00:57:30.541Z,931.42
2016-12-18T00:57:44.881Z,931.41
2016-12-18T00:57:59.296Z,931.44
2016-12-18T00:58:13.733Z,931.44
2016-12-18T00:58:28.163Z,931.44
2016-12-18T00:58:42.556Z,931.44
2016-12-18T00:58:56.940Z,931.44
2016-12-18T00:59:11.335Z,931.42
2016-12-18T00:59:25.804Z,931.41
2016-12-18T00:59:40.233Z,931.41
2016-12-18T00:59:54.581Z,931.42
2016-12-18T01:00:08.977Z,931.39
2016-12-18T01:00:23.357Z,931.41
2016-12-18T01:00:37.728Z,931.41
2016-12-18T01:00:52.190Z,931.37
2016-12-18T01:01:06.546Z,931.38
2016-12-18T01:01:20.974Z,931.41
2016-12-18T01:01:35.406Z,931.36
2016-12-18T01:01:49.838Z,931.35
2016-12-18T01:02:04.209Z,931.38
2016-12-18T01:02:18.902Z,931.38
2016-12-18T01:02:33.294Z,931.42
2016-12-18T01:02:47.708Z,931.34
2016-12-18T01:03:02.099Z,931.33
2016-12-18T01:03:16.540Z,931.33
2016-12-18T01:03:30.956Z,931.32
2016-12-18T01:03:45.349Z,931.32
2016-12-18T01:03:59.782Z,931.32
2016-12-18T01:04:14.153Z,931.34
2016-12-18T01:04:28.518Z,931.29
2016-12-18T01:04:42.897Z,931.31
2016-12-18T01:04:57.255Z,931.33
2016-12-18T01:05:11.626Z,931.32
2016-12-18T01:05:26.027Z,931.3
2016-12-18T01:05:40.403Z,931.27
2016-12-18T01:05:54.775Z,931.32
2016-12-18T01:06:09.122Z,931.24
2016-12-18T01:06:23.515Z,931.31
2016-12-18T01:06:37.912Z,931.35
2016-12-18T01:06:52.353Z,931.29
2016-12-18T01:07:06.725Z,931.36
2016-12-18T01:07:21.150Z,931.31
2016-12-18T01:07:35.568Z,931.29
2016-12-18T01:07:49.954Z,931.28
2016-12-18T01:08:04.364Z,931.33
2016-12-18T01:08:18.697Z,931.34
2016-12-18T01:08:33.068Z,931.35
2016-12-18T01:08:47.449Z,931.34
2016-12-18T01:09:01.876Z,931.31
2016-12-18T01:09:16.302Z,931.34
2016-12-18T01:09:30.670Z,931.33
2016-12-18T01:09:45.056Z,931.32
2016-12-18T01:09:59.367Z,931.34
2016-12-18T01:10:13.752Z,931.38
2016-12-18T01:10:28.113Z,931.34
2016-12-18T01:10:42.467Z,931.34
2016-12-18T01:10:56.969Z,931.33
2016-12-18T01:11:11.440Z,931.34
2016-12-18T01:11:25.832Z,931.35
2016-12-18T01:11:40.229Z,931.35
2016-12-18T01:11:54.652Z,931.34
2016-12-18T01:12:09.022Z,931.35
2016-12-18T01:12:23.374Z,931.36
2016-12-18T01:12:37.749Z,931.33
2016-12-18T01:12:52.170Z,931.32
2016-12-18T01:13:06.595Z,931.33
2016-12-18T01:13:20.986Z,931.34
2016-12-18T01:13:35.359Z,931.35
2016-12-18T01:13:49.745Z,931.33
2016-12-18T01:14:04.160Z,931.33
2016-12-18T01:14:18.609Z,931.36
2016-12-18T01:14:33.030Z,931.33
2016-12-18T01:14:47.387Z,931.34
2016-12-18T01:15:01.772Z,931.32
2016-12-18T01:15:16.155Z,931.26
2016-12-18T01:15:30.499Z,931.33
2016-12-18T01:15:44.858Z,931.31
2016-12-18T01:15:59.214Z,931.32
2016-12-18T01:16:13.648Z,931.29
2016-12-18T01:16:28.017Z,931.31
2016-12-18T01:16:42.414Z,931.3
2016-12-18T01:16:56.764Z,931.28
2016-12-18T01:17:11.134Z,931.28
2016-12-18T01:17:25.797Z,931.28
2016-12-18T01:17:40.153Z,931.32
2016-12-18T01:17:54.570Z,931.27
2016-12-18T01:18:09.014Z,931.22
2016-12-18T01:18:23.415Z,931.26
2016-12-18T01:18:37.779Z,931.25
2016-12-18T01:18:52.231Z,931.29
2016-12-18T01:19:06.611Z,931.29
2016-12-18T01:19:21.077Z,931.25
2016-12-18T01:19:35.502Z,931.31
2016-12-18T01:19:49.890Z,931.29
2016-12-18T01:20:04.366Z,931.25
2016-12-18T01:20:18.754Z,931.32
2016-12-18T01:20:33.137Z,931.28
2016-12-18T01:20:47.431Z,931.26
2016-12-18T01:21:01.829Z,931.29
2016-12-18T01:21:16.236Z,931.25
2016-12-18T01:21:30.607Z,931.27
2016-12-18T01:21:45.076Z,931.28
2016-12-18T01:21:59.406Z,931.24
2016-12-18T01:22:13.879Z,931.27
2016-12-18T01:22:28.269Z,931.26
2016-12-18T01:22:42.672Z,931.21
2016-12-18T01:22:57.104Z,931.23
2016-12-18T01:23:11.471Z,931.23
2016-12-18T01:23:25.889Z,931.28
2016-12-18T01:23:40.245Z,931.29
2016-12-18T01:23:54.643Z,931.21
2016-12-18T01:24:09.127Z,931.24
2016-12-18T01:24:23.459Z,931.25
2016-12-18T01:24:37.832Z,931.22
2016-12-18T01:24:52.237Z,931.21
2016-12-18T01:25:06.524Z,931.22
2016-12-18T01:25:20.923Z,931.24
2016-12-18T01:25:35.315Z,931.23
2016-12-18T01:25:49.678Z,931.22
2016-12-18T01:26:04.100Z,931.23
2016-12-18T01:26:18.486Z,931.21
2016-12-18T01:26:32.925Z,931.27
2016-12-18T01:26:47.259Z,931.22
2016-12-18T01:27:01.667Z,931.2
2016-12-18T01:27:16.047Z,931.24
2016-12-18T01:27:30.422Z,931.23
2016-12-18T01:27:44.920Z,931.19
2016-12-18T01:27:59.286Z,931.24
2016-12-18T01:28:13.648Z,931.21
2016-12-18T01:28:28.041Z,931.24
2016-12-18T01:28:42.399Z,931.2
2016-12-18T01:28:56.749Z,931.21
2016-12-18T01:29:11.131Z,931.19
2016-12-18T01:29:25.485Z,931.21
2016-12-18T01:29:39.920Z,931.22
2016-12-18T01:29:54.374Z,931.23
2016-12-18T01:30:08.679Z,931.22
2016-12-18T01:30:23.046Z,931.15
2016-12-18T01:30:37.396Z,931.17
2016-12-18T01:30:51.812Z,931.21
2016-12-18T01:31:06.122Z,931.19
2016-12-18T01:31:20.475Z,931.21
2016-12-18T01:31:34.947Z,931.18
2016-12-18T01:31:49.392Z,931.16
2016-12-18T01:32:03.825Z,931.16
2016-12-18T01:32:18.172Z,931.14
2016-12-18T01:32:32.878Z,931.17
2016-12-18T01:32:47.234Z,931.18
2016-12-18T01:33:01.585Z,931.14
2016-12-18T01:33:15.947Z,931.13
2016-12-18T01:33:30.365Z,931.13
2016-12-18T01:33:44.838Z,931.19
2016-12-18T01:33:59.206Z,931.15
2016-12-18T01:34:13.611Z,931.16
2016-12-18T01:34:28.079Z,931.16
2016-12-18T01:34:42.435Z,931.14
2016-12-18T01:34:56.797Z,931.14
2016-12-18T01:35:11.163Z,931.14
2016-12-18T01:35:25.582Z,931.16
2016-12-18T01:35:39.977Z,931.14
2016-12-18T01:35:54.344Z,931.17
2016-12-18T01:36:08.749Z,931.13
2016-12-18T01:36:23.149Z,931.13
2016-12-18T01:36:37.620Z,931.13
2016-12-18T01:36:52.017Z,931.11
2016-12-18T01:37:06.360Z,931.16
2016-12-18T01:37:20.762Z,931.13
2016-12-18T01:37:35.236Z,931.09
2016-12-18T01:37:49.673Z,931.14
2016-12-18T01:38:04.094Z,931.14
2016-12-18T01:38:18.460Z,931.17
2016-12-18T01:38:32.862Z,931.11
2016-12-18T01:38:47.300Z,931.15
2016-12-18T01:39:01.684Z,931.16
2016-12-18T01:39:16.122Z,931.16
2016-12-18T01:39:30.459Z,931.09
2016-12-18T01:39:44.838Z,931.17
2016-12-18T01:39:59.259Z,931.1
2016-12-18T01:40:13.711Z,931.13
2016-12-18T01:40:28.145Z,931.1
2016-12-18T01:40:42.501Z,931.1
2016-12-18T01:40:56.907Z,931.09
2016-12-18T01:41:11.279Z,931.08
2016-12-18T01:41:25.643Z,931.05
2016-12-18T01:41:40.049Z,931.08
2016-12-18T01:41:54.485Z,931.14
2016-12-18T01:42:08.901Z,931.06
2016-12-18T01:42:23.327Z,931.07
2016-12-18T01:42:37.689Z,931.07
2016-12-18T01:42:52.162Z,931.08
2016-12-18T01:43:06.533Z,931.13
2016-12-18T01:43:20.957Z,931.11
2016-12-18T01:43:35.330Z,931.04
2016-12-18T01:43:49.694Z,931.05
2016-12-18T01:44:04.031Z,931.06
2016-12-18T01:44:18.373Z,931.05
2016-12-18T01:44:32.712Z,931.04
2016-12-18T01:44:47.073Z,931.05
2016-12-18T01:45:01.463Z,931.04
2016-12-18T01:45:15.883Z,931.03
2016-12-18T01:45:30.335Z,931.06
2016-12-18T01:45:44.766Z,931.03
2016-12-18T01:45:59.144Z,931.07
2016-12-18T01:46:13.584Z,931.05
2016-12-18T01:46:27.976Z,931.04
2016-12-18T01:46:42.352Z,931.05
2016-12-18T01:46:56.713Z,931.03
2016-12-18T01:47:11.093Z,931.05
2016-12-18T01:47:25.489Z,931.06
2016-12-18T01:47:40.226Z,931.07
2016-12-18T01:47:54.595Z,931.01
2016-12-18T01:48:09.014Z,931.03
2016-12-18T01:48:23.403Z,931.03
2016-12-18T01:48:37.824Z,931.01
2016-12-18T01:48:52.189Z,931.02
2016-12-18T01:49:06.546Z,931
2016-12-18T01:49:20.972Z,931.03
2016-12-18T01:49:35.371Z,931.03
2016-12-18T01:49:49.773Z,931.04
2016-12-18T01:50:04.111Z,931
2016-12-18T01:50:18.486Z,931.02
2016-12-18T01:50:32.899Z,931.01
2016-12-18T01:50:47.251Z,930.98
2016-12-18T01:51:01.683Z,931.02
2016-12-18T01:51:16.089Z,930.99
2016-12-18T01:51:30.493Z,931.01
2016-12-18T01:51:44.879Z,931.02
2016-12-18T01:51:59.303Z,930.97
2016-12-18T01:52:13.662Z,930.99
2016-12-18T01:52:27.990Z,930.96
2016-12-18T01:52:42.402Z,930.99
2016-12-18T01:52:56.831Z,930.96
2016-12-18T01:53:11.254Z,931.01
2016-12-18T01:53:25.641Z,931.01
2016-12-18T01:53:40.090Z,931.05
2016-12-18T01:53:54.521Z,930.98
2016-12-18T01:54:08.878Z,931
2016-12-18T01:54:23.231Z,931.04
2016-12-18T01:54:37.642Z,930.99
2016-12-18T01:54:52.090Z,930.98
2016-12-18T01:55:06.505Z,930.95
2016-12-18T01:55:20.940Z,930.94
2016-12-18T01:55:35.358Z,930.96
2016-12-18T01:55:49.794Z,930.95
2016-12-18T01:56:04.155Z,930.91
2016-12-18T01:56:18.564Z,931.01
2016-12-18T01:56:32.910Z,930.98
2016-12-18T01:56:47.324Z,930.93
2016-12-18T01:57:01.745Z,930.97
2016-12-18T01:57:16.192Z,930.95
2016-12-18T01:57:30.530Z,930.91
2016-12-18T01:57:44.955Z,930.95
2016-12-18T01:57:59.302Z,930.94
2016-12-18T01:58:13.720Z,930.95
2016-12-18T01:58:28.174Z,930.94
2016-12-18T01:58:42.598Z,930.96
2016-12-18T01:58:57.066Z,930.96
2016-12-18T01:59:11.421Z,930.95
2016-12-18T01:59:25.792Z,930.94
2016-12-18T01:59:40.191Z,930.91
2016-12-18T01:59:54.624Z,930.92
2016-12-18T02:00:09.014Z,930.94
2016-12-18T02:00:23.368Z,930.91
2016-12-18T02:00:37.775Z,930.93
2016-12-18T02:00:52.154Z,930.92
2016-12-18T02:01:06.743Z,930.89
2016-12-18T02:01:21.169Z,930.9
2016-12-18T02:01:35.604Z,930.92
2016-12-18T02:01:49.985Z,930.91
2016-12-18T02:02:04.279Z,930.87
2016-12-18T02:02:18.661Z,930.86
2016-12-18T02:02:33.086Z,930.84
2016-12-18T02:02:47.828Z,930.9
2016-12-18T02:03:02.242Z,930.86
2016-12-18T02:03:16.630Z,930.81
2016-12-18T02:03:31.029Z,930.83
2016-12-18T02:03:45.420Z,930.89
2016-12-18T02:03:59.851Z,930.84
2016-12-18T02:04:14.234Z,930.79
2016-12-18T02:04:28.679Z,930.79
2016-12-18T02:04:43.101Z,930.84
2016-12-18T02:04:57.476Z,930.81
2016-12-18T02:05:11.867Z,930.79
2016-12-18T02:05:26.280Z,930.79
2016-12-18T02:05:40.724Z,930.82
2016-12-18T02:05:55.148Z,930.82
2016-12-18T02:06:09.551Z,930.83
2016-12-18T02:06:23.991Z,930.77
2016-12-18T02:06:38.340Z,930.82
2016-12-18T02:06:52.736Z,930.81
2016-12-18T02:07:07.138Z,930.79
2016-12-18T02:07:21.518Z,930.82
2016-12-18T02:07:35.895Z,930.8
2016-12-18T02:07:50.275Z,930.8
2016-12-18T02:08:04.665Z,930.78
2016-12-18T02:08:19.045Z,930.81
2016-12-18T02:08:33.357Z,930.78
2016-12-18T02:08:47.811Z,930.78
2016-12-18T02:09:02.346Z,930.8
2016-12-18T02:09:16.736Z,930.79
2016-12-18T02:09:31.123Z,930.77
2016-12-18T02:09:45.535Z,930.78
2016-12-18T02:09:59.953Z,930.78
2016-12-18T02:10:14.318Z,930.76
2016-12-18T02:10:28.739Z,930.72
2016-12-18T02:10:43.147Z,930.79
2016-12-18T02:10:57.547Z,930.78
2016-12-18T02:11:11.939Z,930.72
2016-12-18T02:11:26.353Z,930.75
2016-12-18T02:11:40.777Z,930.76
2016-12-18T02:11:55.131Z,930.7
2016-12-18T02:12:09.572Z,930.74
2016-12-18T02:12:23.985Z,930.75
2016-12-18T02:12:38.417Z,930.74
2016-12-18T02:12:52.792Z,930.71
2016-12-18T02:13:07.258Z,930.7
2016-12-18T02:13:21.699Z,930.74
2016-12-18T02:13:36.091Z,930.72
2016-12-18T02:13:50.551Z,930.72
2016-12-18T02:14:04.973Z,930.72
2016-12-18T02:14:19.381Z,930.72
2016-12-18T02:14:33.808Z,930.7
2016-12-18T02:14:48.217Z,930.74
2016-12-18T02:15:02.623Z,930.71
2016-12-18T02:15:17.029Z,930.74
2016-12-18T02:15:31.419Z,930.71
2016-12-18T02:15:45.848Z,930.69
2016-12-18T02:16:00.168Z,930.72
2016-12-18T02:16:14.594Z,930.74
2016-12-18T02:16:29.022Z,930.71
2016-12-18T02:16:43.453Z,930.71
2016-12-18T02:16:57.820Z,930.72
2016-12-18T02:17:12.164Z,930.7
2016-12-18T02:17:26.575Z,930.7
2016-12-18T02:17:40.943Z,930.7
2016-12-18T02:17:55.657Z,930.74
2016-12-18T02:18:10.006Z,930.73
2016-12-18T02:18:24.430Z,930.75
2016-12-18T02:18:38.835Z,930.68
2016-12-18T02:18:53.154Z,930.7
2016-12-18T02:19:07.517Z,930.68
2016-12-18T02:19:21.958Z,930.71
2016-12-18T02:19:36.389Z,930.72
2016-12-18T02:19:50.863Z,930.7
2016-12-18T02:20:05.250Z,930.71
2016-12-18T02:20:19.654Z,930.67
2016-12-18T02:20:34.075Z,930.7
2016-12-18T02:20:48.415Z,930.72
2016-12-18T02:21:02.801Z,930.72
2016-12-18T02:21:17.176Z,930.72
2016-12-18T02:21:31.632Z,930.74
2016-12-18T02:21:46.042Z,930.7
2016-12-18T02:22:00.411Z,930.74
2016-12-18T02:22:14.814Z,930.75
2016-12-18T02:22:29.172Z,930.74
2016-12-18T02:22:43.556Z,930.71
2016-12-18T02:22:57.979Z,930.74
2016-12-18T02:23:12.369Z,930.72
2016-12-18T02:23:26.764Z,930.72
2016-12-18T02:23:41.100Z,930.73
2016-12-18T02:23:55.536Z,930.74
2016-12-18T02:24:09.918Z,930.68
2016-12-18T02:24:24.266Z,930.7
2016-12-18T02:24:38.717Z,930.7
2016-12-18T02:24:53.085Z,930.7
2016-12-18T02:25:07.523Z,930.7
2016-12-18T02:25:21.953Z,930.72
2016-12-18T02:25:36.381Z,930.69
2016-12-18T02:25:50.808Z,930.69
2016-12-18T02:26:05.225Z,930.72
2016-12-18T02:26:19.606Z,930.71
2016-12-18T02:26:34.021Z,930.69
2016-12-18T02:26:48.384Z,930.65
2016-12-18T02:27:02.781Z,930.67
2016-12-18T02:27:17.230Z,930.69
2016-12-18T02:27:31.610Z,930.7
2016-12-18T02:27:45.964Z,930.7
2016-12-18T02:28:00.408Z,930.67
2016-12-18T02:28:14.789Z,930.69
2016-12-18T02:28:29.167Z,930.67
2016-12-18T02:28:43.574Z,930.69
2016-12-18T02:28:58.035Z,930.67
2016-12-18T02:29:12.420Z,930.68
2016-12-18T02:29:26.723Z,930.65
2016-12-18T02:29:41.131Z,930.66
2016-12-18T02:29:55.505Z,930.64
2016-12-18T02:30:09.913Z,930.65
2016-12-18T02:30:24.301Z,930.63
2016-12-18T02:30:38.633Z,930.67
2016-12-18T02:30:52.913Z,930.68
2016-12-18T02:31:07.410Z,930.63
2016-12-18T02:31:21.825Z,930.63
2016-12-18T02:31:36.186Z,930.63
2016-12-18T02:31:50.609Z,930.61
2016-12-18T02:32:05.031Z,930.62
2016-12-18T02:32:19.416Z,930.62
2016-12-18T02:32:33.727Z,930.6
2016-12-18T02:32:48.161Z,930.62
2016-12-18T02:33:02.912Z,930.58
2016-12-18T02:33:17.314Z,930.6
2016-12-18T02:33:31.771Z,930.67
2016-12-18T02:33:46.200Z,930.67
2016-12-18T02:34:00.533Z,930.64
2016-12-18T02:34:14.881Z,930.63
2016-12-18T02:34:29.307Z,930.61
2016-12-18T02:34:43.656Z,930.6
2016-12-18T02:34:58.007Z,930.62
2016-12-18T02:35:12.372Z,930.6
2016-12-18T02:35:26.851Z,930.59
2016-12-18T02:35:41.288Z,930.6
2016-12-18T02:35:55.731Z,930.59
2016-12-18T02:36:10.073Z,930.56
2016-12-18T02:36:24.409Z,930.58
2016-12-18T02:36:38.821Z,930.56
2016-12-18T02:36:53.197Z,930.61
2016-12-18T02:37:07.639Z,930.57
2016-12-18T02:37:22.055Z,930.59
2016-12-18T02:37:36.510Z,930.56
2016-12-18T02:37:50.912Z,930.59
2016-12-18T02:38:05.262Z,930.54
2016-12-18T02:38:19.680Z,930.54
2016-12-18T02:38:34.060Z,930.55
2016-12-18T02:38:48.493Z,930.49
2016-12-18T02:39:02.899Z,930.51
2016-12-18T02:39:17.289Z,930.53
2016-12-18T02:39:31.605Z,930.53
2016-12-18T02:39:45.988Z,930.51
2016-12-18T02:40:00.387Z,930.5
2016-12-18T02:40:14.805Z,930.54
2016-12-18T02:40:29.232Z,930.51
2016-12-18T02:40:43.685Z,930.48
2016-12-18T02:40:58.079Z,930.5
2016-12-18T02:41:12.508Z,930.5
2016-12-18T02:41:26.856Z,930.52
2016-12-18T02:41:41.264Z,930.51
2016-12-18T02:41:55.648Z,930.5
2016-12-18T02:42:10.054Z,930.5
2016-12-18T02:42:24.464Z,930.47
2016-12-18T02:42:38.859Z,930.45
2016-12-18T02:42:53.203Z,930.52
2016-12-18T02:43:07.557Z,930.53
2016-12-18T02:43:22.010Z,930.48
2016-12-18T02:43:36.407Z,930.47
2016-12-18T02:43:50.807Z,930.45
2016-12-18T02:44:05.185Z,930.48
2016-12-18T02:44:19.561Z,930.46
2016-12-18T02:44:33.982Z,930.44
2016-12-18T02:44:48.387Z,930.46
2016-12-18T02:45:02.728Z,930.45
2016-12-18T02:45:17.085Z,930.51
2016-12-18T02:45:31.433Z,930.49
2016-12-18T02:45:45.788Z,930.46
2016-12-18T02:46:00.128Z,930.44
2016-12-18T02:46:14.554Z,930.49
2016-12-18T02:46:29.043Z,930.47
2016-12-18T02:46:43.413Z,930.46
2016-12-18T02:46:57.812Z,930.49
2016-12-18T02:47:12.204Z,930.46
2016-12-18T02:47:26.548Z,930.46
2016-12-18T02:47:40.970Z,930.44
2016-12-18T02:47:55.283Z,930.44
2016-12-18T02:48:09.903Z,930.43
2016-12-18T02:48:24.301Z,930.44
2016-12-18T02:48:38.677Z,930.44
2016-12-18T02:48:52.993Z,930.41
2016-12-18T02:49:07.466Z,930.42
2016-12-18T02:49:21.895Z,930.4
2016-12-18T02:49:36.355Z,930.44
2016-12-18T02:49:50.816Z,930.41
2016-12-18T02:50:05.107Z,930.41
2016-12-18T02:50:19.498Z,930.43
2016-12-18T02:50:33.961Z,930.43
2016-12-18T02:50:48.288Z,930.4
2016-12-18T02:51:02.714Z,930.45
2016-12-18T02:51:17.185Z,930.4
2016-12-18T02:51:31.669Z,930.4
2016-12-18T02:51:46.090Z,930.39
2016-12-18T02:52:00.524Z,930.44
2016-12-18T02:52:14.908Z,930.38
2016-12-18T02:52:29.305Z,930.4
2016-12-18T02:52:43.705Z,930.42
2016-12-18T02:52:58.173Z,930.4
2016-12-18T02:53:12.537Z,930.37
2016-12-18T02:53:26.890Z,930.35
2016-12-18T02:53:41.322Z,930.39
2016-12-18T02:53:55.692Z,930.41
2016-12-18T02:54:10.088Z,930.35
2016-12-18T02:54:24.479Z,930.4
2016-12-18T02:54:38.854Z,930.4
2016-12-18T02:54:53.228Z,930.34
2016-12-18T02:55:07.585Z,930.37
2016-12-18T02:55:21.916Z,930.35
2016-12-18T02:55:36.284Z,930.35
2016-12-18T02:55:50.688Z,930.41
2016-12-18T02:56:05.027Z,930.37
2016-12-18T02:56:19.452Z,930.4
2016-12-18T02:56:33.874Z,930.33
2016-12-18T02:56:48.305Z,930.36
2016-12-18T02:57:02.761Z,930.36
2016-12-18T02:57:17.179Z,930.37
2016-12-18T02:57:31.597Z,930.33
2016-12-18T02:57:46.004Z,930.34
2016-12-18T02:58:00.381Z,930.37
2016-12-18T02:58:14.819Z,930.39
2016-12-18T02:58:29.270Z,930.42
2016-12-18T02:58:43.710Z,930.39
2016-12-18T02:58:58.096Z,930.35
2016-12-18T02:59:12.519Z,930.38
2016-12-18T02:59:26.939Z,930.35
2016-12-18T02:59:41.403Z,930.35
2016-12-18T02:59:55.865Z,930.41
2016-12-18T03:00:10.275Z,930.39
2016-12-18T03:00:24.739Z,930.34